Disclaimer

Please do not use the information listed here in-flight or in-navigation, as they are not provided to us by the airports but are provided by volunteers, so they might be outdated.

Search


Regions


Airport information page

Radio informations:
HALIFAX RDO - 126.7 MHz

Airport informations:
Latitude: 45° 39' 24.00" N
Longitude: 061° 22' 05.00" W
Elevation: 377 feet - 115 meters
Operating hours: N/A
Operating agency: Municipal
Timezone: Second Sunday in March at 0200 to first Sunday in November at 0200 local time (Exception Arizona and that portion of Indiana in the Eastern Time Zone)
Fuel: Jet A1, without icing nhibitor.

100/130 MIL Spec, low lead, aviation gasoline (BLUE)

Runway information:
11/29 - 5000 x 150 feet< - >1524 x 46 meters

Recent METARs:
CYPD 181700Z AUTO 30014G23KT 9SM BKN032 M00/M07 A3020 RMK SLP234
CYPD 181800Z AUTO 31012G21KT 9SM SCT028 BKN035 M00/M07 A3022 RMK SLP240
CYPD 181800Z AUTO 31012G21KT 9SM SCT028 BKN035 M00/M07 A3022 RMK SLP240

Airport on the map: